Time;durP1;ratioP1;P1;durP2;ratioP2;P2;SDS_P1;SDS_P2;PMS_P1;PMS_P2;Temp;Humidity;BMP_temperature;BMP_pressure;BME280_temperature;BME280_humidity;BME280_pressure;Samples;Min_cycle;Max_cycle;Signal;HPM_P1;HPM_P2
2024/02/10 00:02:03;;;;;;;13.37;5.70;;;;;;;;;;5109271;28;20280;-60
2024/02/10 00:04:30;;;;;;;16.45;6.25;;;;;;;;;;5118951;28;20265;-59
2024/02/10 00:06:56;;;;;;;14.93;5.30;;;;;;;;;;5114162;28;20059;-60
2024/02/10 00:09:22;;;;;;;10.00;5.65;;;;;;;;;;5118284;28;20330;-57
2024/02/10 00:11:48;;;;;;;16.43;5.77;;;;;;;;;;5116926;28;20099;-59
2024/02/10 00:14:17;;;;;;;10.10;4.70;;;;;;;;;;5110279;28;20256;-59
2024/02/10 00:16:44;;;;;;;17.83;6.03;;;;;;;;;;5108295;28;20316;-61
2024/02/10 00:19:09;;;;;;;11.98;5.22;;;;;;;;;;5119406;28;20298;-59
2024/02/10 00:21:36;;;;;;;11.67;4.90;;;;;;;;;;5108109;28;20099;-60
2024/02/10 00:24:02;;;;;;;10.65;5.47;;;;;;;;;;5120260;28;20035;-59
2024/02/10 00:26:28;;;;;;;12.23;4.40;;;;;;;;;;5116959;28;20043;-59
2024/02/10 00:28:55;;;;;;;8.90;4.47;;;;;;;;;;5124872;28;20269;-60
2024/02/10 00:31:23;;;;;;;14.90;5.97;;;;;;;;;;5107284;28;20306;-58
2024/02/10 00:33:51;;;;;;;15.00;5.60;;;;;;;;;;5120462;28;20257;-60
2024/02/10 00:36:17;;;;;;;14.77;5.00;;;;;;;;;;5109013;28;20269;-60
2024/02/10 00:38:42;;;;;;;12.88;4.90;;;;;;;;;;5123677;28;20291;-59
2024/02/10 00:41:09;;;;;;;15.35;5.85;;;;;;;;;;5116540;28;20028;-58
2024/02/10 00:43:42;;;;;;;12.17;5.30;;;;;;;;;;5113126;28;20040;-60
2024/02/10 00:46:09;;;;;;;19.57;5.60;;;;;;;;;;5112103;28;20328;-60
2024/02/10 00:48:36;;;;;;;14.53;5.27;;;;;;;;;;5115602;28;20281;-59
2024/02/10 00:51:04;;;;;;;11.63;5.20;;;;;;;;;;5109131;28;20284;-58
2024/02/10 00:53:29;;;;;;;11.30;5.43;;;;;;;;;;5111996;28;20313;-59
2024/02/10 00:55:55;;;;;;;13.73;4.93;;;;;;;;;;5116071;28;20268;-59
2024/02/10 00:58:20;;;;;;;12.73;6.13;;;;;;;;;;5113772;28;20040;-59
2024/02/10 01:00:46;;;;;;;14.43;5.75;;;;;;;;;;5106429;28;20033;-60
2024/02/10 01:03:13;;;;;;;15.02;5.60;;;;;;;;;;5106861;28;20082;-58
2024/02/10 01:05:39;;;;;;;11.97;5.20;;;;;;;;;;5118806;28;20050;-60
2024/02/10 01:08:08;;;;;;;13.07;5.57;;;;;;;;;;5109964;28;20264;-59
2024/02/10 01:10:34;;;;;;;11.13;4.97;;;;;;;;;;5115571;28;20036;-59
2024/02/10 01:13:03;;;;;;;13.75;5.50;;;;;;;;;;5103637;28;20295;-57
2024/02/10 01:15:30;;;;;;;12.07;4.70;;;;;;;;;;5118781;28;20039;-61
2024/02/10 01:17:56;;;;;;;14.50;6.07;;;;;;;;;;5113596;28;20248;-60
2024/02/10 01:20:22;;;;;;;9.50;4.93;;;;;;;;;;5120575;28;20280;-60
2024/02/10 01:22:48;;;;;;;10.10;4.73;;;;;;;;;;5115369;28;20290;-60
2024/02/10 01:25:14;;;;;;;12.45;5.20;;;;;;;;;;5124418;28;20265;-60
2024/02/10 01:27:42;;;;;;;10.48;5.78;;;;;;;;;;5109069;28;20033;-60
2024/02/10 01:30:07;;;;;;;12.80;5.67;;;;;;;;;;5118778;28;20051;-59
2024/02/10 01:32:33;;;;;;;14.87;5.00;;;;;;;;;;5114165;28;20287;-56
2024/02/10 01:34:58;;;;;;;6.90;4.57;;;;;;;;;;5113192;28;20342;-59
2024/02/10 01:37:24;;;;;;;10.38;4.93;;;;;;;;;;5115389;28;20089;-59
2024/02/10 01:40:01;;;;;;;8.47;4.73;;;;;;;;;;5119010;28;20034;-58
2024/02/10 01:42:38;;;;;;;;;;;;;;;;;;5099044;28;20028;-59
2024/02/10 01:45:11;;;;;;;9.20;4.82;;;;;;;;;;5121299;28;19915;-59
2024/02/10 01:47:43;;;;;;;9.20;5.07;;;;;;;;;;5099951;28;20092;-59
2024/02/10 01:50:12;;;;;;;12.83;5.43;;;;;;;;;;5121388;28;20292;-59
2024/02/10 01:52:39;;;;;;;10.97;4.57;;;;;;;;;;5103199;28;20332;-58
2024/02/10 01:55:05;;;;;;;9.63;4.60;;;;;;;;;;5116381;28;20279;-61
2024/02/10 01:57:30;;;;;;;11.27;4.80;;;;;;;;;;5102190;28;20258;-61
2024/02/10 01:59:59;;;;;;;10.70;4.72;;;;;;;;;;5122155;28;20035;-59
2024/02/10 02:02:31;;;;;;;12.00;5.03;;;;;;;;;;5109307;28;20043;-59
2024/02/10 02:05:00;;;;;;;9.00;4.03;;;;;;;;;;5111807;28;20268;-60
2024/02/10 02:07:30;;;;;;;8.70;4.47;;;;;;;;;;5114705;28;20267;-60
2024/02/10 02:10:00;;;;;;;8.77;4.73;;;;;;;;;;5115013;28;20278;-59
2024/02/10 02:12:26;;;;;;;9.17;5.50;;;;;;;;;;5115154;28;20272;-59
2024/02/10 02:14:53;;;;;;;9.50;4.63;;;;;;;;;;5112516;28;20261;-59
2024/02/10 02:17:19;;;;;;;9.40;4.80;;;;;;;;;;5104538;28;20128;-59
2024/02/10 02:19:45;;;;;;;11.63;4.55;;;;;;;;;;5121209;28;20342;-59
2024/02/10 02:22:10;;;;;;;12.37;4.47;;;;;;;;;;5102303;28;20036;-57
2024/02/10 02:24:36;;;;;;;12.63;4.20;;;;;;;;;;5117298;28;20028;-59
2024/02/10 02:27:02;;;;;;;10.75;5.03;;;;;;;;;;5105051;28;20036;-57
2024/02/10 02:29:28;;;;;;;9.80;5.60;;;;;;;;;;5122191;28;20035;-59
2024/02/10 02:31:53;;;;;;;11.63;4.50;;;;;;;;;;5114123;28;20290;-59
2024/02/10 02:34:21;;;;;;;12.15;4.82;;;;;;;;;;5114446;28;20290;-57
2024/02/10 02:36:47;;;;;;;10.30;5.17;;;;;;;;;;5113914;28;20036;-60
2024/02/10 02:39:13;;;;;;;11.83;5.07;;;;;;;;;;5120280;28;20329;-60
2024/02/10 02:41:39;;;;;;;8.35;5.05;;;;;;;;;;5117088;28;20279;-59
2024/02/10 02:44:08;;;;;;;7.27;4.30;;;;;;;;;;5104663;28;20039;-60
2024/02/10 02:46:35;;;;;;;13.13;5.10;;;;;;;;;;5126046;28;20031;-58
2024/02/10 02:49:00;;;;;;;15.35;5.93;;;;;;;;;;5116829;28;20272;-59
2024/02/10 02:51:26;;;;;;;12.07;5.50;;;;;;;;;;5117405;28;20066;-59
2024/02/10 02:53:51;;;;;;;16.40;5.07;;;;;;;;;;5109075;28;20020;-56
2024/02/10 02:56:18;;;;;;;10.73;5.00;;;;;;;;;;5115260;28;20281;-59
2024/02/10 02:58:52;;;;;;;8.27;4.87;;;;;;;;;;5118629;28;20034;-60
2024/02/10 03:01:18;;;;;;;8.60;4.57;;;;;;;;;;5117212;28;20252;-58
2024/02/10 03:03:49;;;;;;;10.73;5.30;;;;;;;;;;5118220;28;20279;-57
2024/02/10 03:06:19;;;;;;;13.80;4.83;;;;;;;;;;5128531;28;20253;-58
2024/02/10 03:08:45;;;;;;;12.37;4.57;;;;;;;;;;5118115;28;20375;-58
2024/02/10 03:11:17;;;;;;;9.40;4.45;;;;;;;;;;5122100;28;20283;-59
2024/02/10 03:13:43;;;;;;;11.83;4.67;;;;;;;;;;5114721;28;20054;-61
2024/02/10 03:16:09;;;;;;;10.10;4.93;;;;;;;;;;5121749;28;20347;-59
2024/02/10 03:18:39;;;;;;;8.17;4.90;;;;;;;;;;5122856;28;20260;-60
2024/02/10 03:21:05;;;;;;;11.77;4.40;;;;;;;;;;5116410;28;20261;-59
2024/02/10 03:23:31;;;;;;;13.03;4.77;;;;;;;;;;5101120;28;20267;-60
2024/02/10 03:26:01;;;;;;;11.63;5.18;;;;;;;;;;5123412;28;20261;-59
2024/02/10 03:28:26;;;;;;;11.60;4.60;;;;;;;;;;5117704;28;20066;-59
2024/02/10 03:30:52;;;;;;;10.20;4.90;;;;;;;;;;5125984;28;20265;-58
2024/02/10 03:33:17;;;;;;;8.80;4.67;;;;;;;;;;5117291;28;20299;-60
2024/02/10 03:35:44;;;;;;;;;;;;;;;;;;5115966;28;20028;-58
2024/02/10 03:38:09;;;;;;;12.73;5.43;;;;;;;;;;5119940;28;19948;-59
2024/02/10 03:40:35;;;;;;;10.17;4.43;;;;;;;;;;5105515;28;20057;-58
2024/02/10 03:43:00;;;;;;;13.37;5.73;;;;;;;;;;5117261;28;20269;-60
2024/02/10 03:45:32;;;;;;;8.32;5.10;;;;;;;;;;5117245;28;20036;-59
2024/02/10 03:48:03;;;;;;;12.77;5.40;;;;;;;;;;5114091;28;20040;-60
2024/02/10 03:50:29;;;;;;;10.83;5.20;;;;;;;;;;5127347;28;20344;-60
2024/02/10 03:52:57;;;;;;;12.17;5.67;;;;;;;;;;5116812;28;20277;-60
2024/02/10 03:55:23;;;;;;;11.43;5.83;;;;;;;;;;5117290;28;20666;-57
2024/02/10 03:57:51;;;;;;;14.10;5.35;;;;;;;;;;5114072;28;20312;-58
2024/02/10 04:00:18;;;;;;;13.27;4.77;;;;;;;;;;5122348;28;20091;-59
2024/02/10 04:02:44;;;;;;;11.67;5.57;;;;;;;;;;5116524;28;20249;-60
2024/02/10 04:05:11;;;;;;;10.17;4.63;;;;;;;;;;5119187;28;20356;-60
2024/02/10 04:07:37;;;;;;;10.93;4.63;;;;;;;;;;5125558;28;20084;-61
2024/02/10 04:10:04;;;;;;;12.02;5.55;;;;;;;;;;5117169;28;20260;-61
2024/02/10 04:12:30;;;;;;;;;;;;;;;;;;5117349;28;20048;-60
2024/02/10 04:14:58;;;;;;;9.67;5.07;;;;;;;;;;5115649;28;19933;-60
2024/02/10 04:17:24;;;;;;;8.97;4.70;;;;;;;;;;5117054;28;20279;-58
2024/02/10 04:19:53;;;;;;;9.87;4.53;;;;;;;;;;5121367;28;20268;-60
2024/02/10 04:22:23;;;;;;;9.63;5.23;;;;;;;;;;5116939;28;20028;-60
2024/02/10 04:24:53;;;;;;;9.70;4.53;;;;;;;;;;5116414;28;20286;-61
2024/02/10 04:27:18;;;;;;;10.30;5.20;;;;;;;;;;5113089;28;20268;-61
2024/02/10 04:29:44;;;;;;;9.30;4.88;;;;;;;;;;5118659;28;20268;-59
2024/02/10 04:32:09;;;;;;;17.00;5.15;;;;;;;;;;5111766;28;20040;-60
2024/02/10 04:34:34;;;;;;;7.40;4.70;;;;;;;;;;5107824;28;20024;-60
2024/02/10 04:37:00;;;;;;;11.73;5.53;;;;;;;;;;5116008;28;20032;-60
2024/02/10 04:39:27;;;;;;;9.52;4.53;;;;;;;;;;5105757;28;20033;-61
2024/02/10 04:41:53;;;;;;;8.40;4.63;;;;;;;;;;5106817;28;20092;-57
2024/02/10 04:44:19;;;;;;;9.40;4.63;;;;;;;;;;5096536;28;20269;-59
2024/02/10 04:46:44;;;;;;;13.55;5.18;;;;;;;;;;5117250;28;20049;-61
2024/02/10 04:49:10;;;;;;;8.00;4.60;;;;;;;;;;5116564;28;20028;-58
2024/02/10 04:51:36;;;;;;;11.02;4.55;;;;;;;;;;5105203;28;20050;-59
2024/02/10 04:54:04;;;;;;;9.13;4.73;;;;;;;;;;5115947;28;20032;-59
2024/02/10 04:56:30;;;;;;;9.93;4.53;;;;;;;;;;5111502;28;20024;-58
2024/02/10 04:58:56;;;;;;;6.57;3.85;;;;;;;;;;5108234;28;20282;-59
2024/02/10 05:01:29;;;;;;;7.90;4.40;;;;;;;;;;5112525;28;20029;-60
2024/02/10 05:03:54;;;;;;;12.60;4.77;;;;;;;;;;5115706;28;20268;-58
2024/02/10 05:06:20;;;;;;;9.90;4.77;;;;;;;;;;5129683;28;20259;-59
2024/02/10 05:08:45;;;;;;;10.38;5.20;;;;;;;;;;5122373;28;20024;-60
2024/02/10 05:11:11;;;;;;;10.10;5.03;;;;;;;;;;5122709;28;20032;-61
2024/02/10 05:13:38;;;;;;;11.95;5.15;;;;;;;;;;5116057;28;20024;-60
2024/02/10 05:16:04;;;;;;;8.97;4.87;;;;;;;;;;5114746;28;20138;-59
2024/02/10 05:18:31;;;;;;;10.10;5.13;;;;;;;;;;5116050;28;20282;-60
2024/02/10 05:20:59;;;;;;;8.27;4.55;;;;;;;;;;5120163;28;20028;-59
2024/02/10 05:23:25;;;;;;;12.63;5.23;;;;;;;;;;5116011;28;20021;-60
2024/02/10 05:25:50;;;;;;;17.50;4.78;;;;;;;;;;5118034;28;20288;-57
2024/02/10 05:28:15;;;;;;;13.38;5.60;;;;;;;;;;5115599;28;20028;-56
2024/02/10 05:30:41;;;;;;;7.80;4.70;;;;;;;;;;5114711;28;20028;-58
2024/02/10 05:33:07;;;;;;;10.00;4.82;;;;;;;;;;5117837;28;20035;-58
2024/02/10 05:35:32;;;;;;;9.90;5.07;;;;;;;;;;5115182;28;20028;-60
2024/02/10 05:37:59;;;;;;;12.30;4.97;;;;;;;;;;5111684;28;20024;-60
2024/02/10 05:40:26;;;;;;;12.15;5.75;;;;;;;;;;5108966;28;20031;-60
2024/02/10 05:42:52;;;;;;;9.33;5.70;;;;;;;;;;5109385;28;20037;-60
2024/02/10 05:45:18;;;;;;;9.80;4.85;;;;;;;;;;5111199;28;20298;-59
2024/02/10 05:47:49;;;;;;;8.40;4.80;;;;;;;;;;5113039;28;20039;-58
2024/02/10 05:50:18;;;;;;;10.73;4.87;;;;;;;;;;5120069;28;20310;-59
2024/02/10 05:52:47;;;;;;;13.63;5.37;;;;;;;;;;5114388;28;20308;-59
2024/02/10 05:55:27;;;;;;;10.57;5.13;;;;;;;;;;5114173;28;20268;-60
2024/02/10 05:57:55;;;;;;;11.30;6.43;;;;;;;;;;5110416;28;20269;-55
2024/02/10 06:00:24;;;;;;;10.93;5.20;;;;;;;;;;5118013;28;20285;-57
2024/02/10 06:02:50;;;;;;;11.53;5.07;;;;;;;;;;5110610;28;20286;-60
2024/02/10 06:05:15;;;;;;;11.00;5.53;;;;;;;;;;5114816;28;20261;-60
2024/02/10 06:07:41;;;;;;;11.57;5.13;;;;;;;;;;5115969;28;20257;-60
2024/02/10 06:10:12;;;;;;;9.82;4.40;;;;;;;;;;5117182;28;20257;-60
2024/02/10 06:12:44;;;;;;;13.93;5.90;;;;;;;;;;5107428;28;20035;-59
2024/02/10 06:15:10;;;;;;;9.73;5.87;;;;;;;;;;5112289;28;20267;-60
2024/02/10 06:17:39;;;;;;;12.38;5.75;;;;;;;;;;5115538;28;20256;-59
2024/02/10 06:20:06;;;;;;;9.40;5.00;;;;;;;;;;5108055;28;20024;-58
2024/02/10 06:22:33;;;;;;;12.70;5.70;;;;;;;;;;5114854;28;20260;-57
2024/02/10 06:24:58;;;;;;;11.60;5.90;;;;;;;;;;5110272;28;20277;-59
2024/02/10 06:27:23;;;;;;;11.57;5.87;;;;;;;;;;5109853;28;20040;-59
2024/02/10 06:29:49;;;;;;;13.40;5.45;;;;;;;;;;5114331;28;20063;-60
2024/02/10 06:32:15;;;;;;;13.33;5.30;;;;;;;;;;5098042;28;20032;-59
2024/02/10 06:34:42;;;;;;;11.83;5.70;;;;;;;;;;5096713;28;20261;-61
2024/02/10 06:37:08;;;;;;;16.30;6.20;;;;;;;;;;5110330;28;20249;-59
2024/02/10 06:39:35;;;;;;;13.63;5.80;;;;;;;;;;5114264;28;20340;-58
2024/02/10 06:42:00;;;;;;;12.57;5.53;;;;;;;;;;5116961;28;20264;-60
2024/02/10 06:44:26;;;;;;;12.90;5.73;;;;;;;;;;5107563;28;20281;-59
2024/02/10 06:46:52;;;;;;;12.23;5.45;;;;;;;;;;5113921;28;20024;-59
2024/02/10 06:49:20;;;;;;;29.17;6.27;;;;;;;;;;5113077;28;20098;-58
2024/02/10 06:51:47;;;;;;;9.37;5.17;;;;;;;;;;5119979;28;20302;-57
2024/02/10 06:54:12;;;;;;;15.65;5.15;;;;;;;;;;5114538;28;20269;-59
2024/02/10 06:56:38;;;;;;;11.83;5.40;;;;;;;;;;5100729;28;20063;-60
2024/02/10 06:59:03;;;;;;;10.68;5.53;;;;;;;;;;5110844;28;20032;-60
2024/02/10 07:01:32;;;;;;;16.02;6.30;;;;;;;;;;5114507;28;20044;-59
2024/02/10 07:03:58;;;;;;;13.97;6.30;;;;;;;;;;5116047;28;20057;-58
2024/02/10 07:06:27;;;;;;;13.30;6.53;;;;;;;;;;5101158;28;20261;-61
2024/02/10 07:08:54;;;;;;;11.23;5.67;;;;;;;;;;5102323;28;20295;-59
2024/02/10 07:11:19;;;;;;;14.00;7.30;;;;;;;;;;5109671;28;20292;-60
2024/02/10 07:13:45;;;;;;;12.17;6.17;;;;;;;;;;5112006;28;20047;-59
2024/02/10 07:16:10;;;;;;;14.53;6.00;;;;;;;;;;5108577;28;20261;-59
2024/02/10 07:18:38;;;;;;;10.13;6.28;;;;;;;;;;5109887;28;20390;-61
2024/02/10 07:21:04;;;;;;;10.37;6.20;;;;;;;;;;5114611;28;20060;-59
2024/02/10 07:23:30;;;;;;;14.75;6.55;;;;;;;;;;5108856;28;20260;-60
2024/02/10 07:25:55;;;;;;;11.93;6.17;;;;;;;;;;5113935;28;20039;-60
2024/02/10 07:28:21;;;;;;;20.60;7.17;;;;;;;;;;5115125;28;20276;-59
2024/02/10 07:30:52;;;;;;;9.32;5.80;;;;;;;;;;5119946;28;20281;-59
2024/02/10 07:33:18;;;;;;;14.70;6.53;;;;;;;;;;5118559;28;20024;-59
2024/02/10 07:35:49;;;;;;;15.35;7.13;;;;;;;;;;5101364;28;20317;-59
2024/02/10 07:38:18;;;;;;;11.40;6.50;;;;;;;;;;5107302;28;20062;-60
2024/02/10 07:40:44;;;;;;;15.90;6.80;;;;;;;;;;5120048;28;20282;-59
2024/02/10 07:43:13;;;;;;;9.27;6.15;;;;;;;;;;5121594;28;20260;-58
2024/02/10 07:45:39;;;;;;;14.73;6.37;;;;;;;;;;5110112;28;20036;-59
2024/02/10 07:48:06;;;;;;;11.97;6.03;;;;;;;;;;5117275;28;20300;-60
2024/02/10 07:50:33;;;;;;;10.20;5.97;;;;;;;;;;5119104;28;20028;-59
2024/02/10 07:52:59;;;;;;;13.03;6.33;;;;;;;;;;5112920;28;20360;-61
2024/02/10 07:55:25;;;;;;;;;;;;;;;;;;5118393;28;20276;-57
2024/02/10 07:57:56;;;;;;;9.67;5.63;;;;;;;;;;5116882;28;19915;-60
2024/02/10 08:00:22;;;;;;;14.17;6.30;;;;;;;;;;5117473;28;20053;-57
2024/02/10 08:02:47;;;;;;;14.50;7.03;;;;;;;;;;5113862;28;20273;-61
2024/02/10 08:05:20;;;;;;;19.30;8.90;;;;;;;;;;5123474;28;20027;-61
2024/02/10 08:07:45;;;;;;;16.37;9.23;;;;;;;;;;5116997;28;20020;-60
2024/02/10 08:10:11;;;;;;;13.80;7.57;;;;;;;;;;5118944;28;20280;-58
2024/02/10 08:12:36;;;;;;;15.88;7.15;;;;;;;;;;5118206;28;20043;-59
2024/02/10 08:15:02;;;;;;;15.70;7.20;;;;;;;;;;5115698;28;20044;-59
2024/02/10 08:17:31;;;;;;;9.23;5.63;;;;;;;;;;5109201;28;20256;-60
2024/02/10 08:19:57;;;;;;;13.97;6.80;;;;;;;;;;5116857;28;20289;-58
2024/02/10 08:22:23;;;;;;;37.13;7.18;;;;;;;;;;5127521;28;20383;-60
2024/02/10 08:24:51;;;;;;;15.88;6.35;;;;;;;;;;5116771;28;20036;-61
2024/02/10 08:27:17;;;;;;;13.27;6.60;;;;;;;;;;5117422;28;20058;-60
2024/02/10 08:29:43;;;;;;;12.43;6.57;;;;;;;;;;5116283;28;20288;-60
2024/02/10 08:32:12;;;;;;;;;;;;;;;;;;5126952;28;20032;-57
2024/02/10 08:34:42;;;;;;;18.63;6.63;;;;;;;;;;5107734;28;19943;-59
2024/02/10 08:37:12;;;;;;;9.50;5.87;;;;;;;;;;5118212;28;20273;-59
2024/02/10 08:39:37;;;;;;;12.57;7.10;;;;;;;;;;5116511;28;20275;-62
2024/02/10 08:42:05;;;;;;;11.98;6.22;;;;;;;;;;5116793;28;20296;-60
2024/02/10 08:44:31;;;;;;;14.03;5.03;;;;;;;;;;5116145;28;20032;-61
2024/02/10 08:46:59;;;;;;;13.07;5.65;;;;;;;;;;5116002;28;20271;-59
2024/02/10 08:49:25;;;;;;;11.37;5.70;;;;;;;;;;5116449;28;20035;-60
2024/02/10 08:51:53;;;;;;;15.70;6.37;;;;;;;;;;5119469;28;20311;-60
2024/02/10 08:54:19;;;;;;;13.23;6.10;;;;;;;;;;5103693;28;20494;-59
2024/02/10 08:56:45;;;;;;;9.87;5.77;;;;;;;;;;5115990;28;20257;-58
2024/02/10 08:59:12;;;;;;;10.07;5.77;;;;;;;;;;5115765;28;20280;-60
2024/02/10 09:01:41;;;;;;;14.20;5.77;;;;;;;;;;5118188;28;20047;-60
2024/02/10 09:04:08;;;;;;;13.47;6.43;;;;;;;;;;5116013;28;20264;-59
2024/02/10 09:06:34;;;;;;;13.90;6.33;;;;;;;;;;5112966;28;20288;-60
2024/02/10 09:08:59;;;;;;;10.73;6.25;;;;;;;;;;5111036;28;20277;-62
2024/02/10 09:11:25;;;;;;;11.57;6.50;;;;;;;;;;5103557;28;20464;-59
2024/02/10 09:13:51;;;;;;;16.53;6.27;;;;;;;;;;5102132;28;20046;-58
2024/02/10 09:16:17;;;;;;;;;;;;;;;;;;5110995;28;20063;-59
2024/02/10 09:18:43;;;;;;;9.70;5.40;;;;;;;;;;5104303;28;19908;-58
2024/02/10 09:21:09;;;;;;;7.07;4.73;;;;;;;;;;5104087;28;20036;-59
2024/02/10 09:23:35;;;;;;;8.53;4.90;;;;;;;;;;5108821;28;20824;-60
2024/02/10 09:26:00;;;;;;;8.53;5.67;;;;;;;;;;5114920;28;20329;-60
2024/02/10 09:28:29;;;;;;;10.82;4.88;;;;;;;;;;5115058;28;20028;-60
2024/02/10 09:30:55;;;;;;;9.73;4.97;;;;;;;;;;5117859;28;20035;-59
2024/02/10 09:33:21;;;;;;;9.40;5.03;;;;;;;;;;5119386;28;20332;-60
2024/02/10 09:35:48;;;;;;;12.90;5.65;;;;;;;;;;5108894;28;20029;-60
2024/02/10 09:38:15;;;;;;;10.83;5.13;;;;;;;;;;5104190;28;20021;-60
2024/02/10 09:40:42;;;;;;;11.13;5.17;;;;;;;;;;5110694;28;20287;-61
2024/02/10 09:43:08;;;;;;;8.60;4.90;;;;;;;;;;5111832;28;20269;-61
2024/02/10 09:45:35;;;;;;;7.55;5.05;;;;;;;;;;5115034;28;20265;-59
2024/02/10 09:48:01;;;;;;;9.50;5.83;;;;;;;;;;5109668;28;20040;-60
2024/02/10 09:50:31;;;;;;;12.77;6.13;;;;;;;;;;5107181;28;20269;-59
2024/02/10 09:52:56;;;;;;;10.30;5.13;;;;;;;;;;5115385;28;20036;-60
2024/02/10 09:55:22;;;;;;;12.90;5.87;;;;;;;;;;5114265;28;20272;-59
2024/02/10 09:57:48;;;;;;;9.32;5.35;;;;;;;;;;5114667;28;20036;-61
2024/02/10 10:00:16;;;;;;;14.02;5.38;;;;;;;;;;5115274;28;20032;-59
2024/02/10 10:02:46;;;;;;;11.30;5.60;;;;;;;;;;5103808;28;20036;-60
2024/02/10 10:05:11;;;;;;;9.77;5.17;;;;;;;;;;5103540;28;20268;-60
2024/02/10 10:07:36;;;;;;;14.77;5.97;;;;;;;;;;5114757;28;20269;-60
2024/02/10 10:10:03;;;;;;;9.80;5.85;;;;;;;;;;5113844;28;20039;-59
2024/02/10 10:12:28;;;;;;;9.17;5.57;;;;;;;;;;5110429;28;20063;-60
2024/02/10 10:14:54;;;;;;;9.85;5.70;;;;;;;;;;5105956;28;20046;-61
2024/02/10 10:17:19;;;;;;;12.13;5.20;;;;;;;;;;5114423;28;20040;-60
2024/02/10 10:19:45;;;;;;;18.08;4.97;;;;;;;;;;5102624;28;20107;-58
2024/02/10 10:22:10;;;;;;;9.13;4.72;;;;;;;;;;5114152;28;20069;-60
2024/02/10 10:24:37;;;;;;;12.48;6.07;;;;;;;;;;5100713;28;20060;-60
2024/02/10 10:27:02;;;;;;;8.85;5.70;;;;;;;;;;5110099;28;20044;-60
2024/02/10 10:29:33;;;;;;;13.13;5.13;;;;;;;;;;5114654;28;20036;-61
2024/02/10 10:31:59;;;;;;;11.37;5.07;;;;;;;;;;5122387;28;20044;-58
2024/02/10 10:34:26;;;;;;;9.53;6.00;;;;;;;;;;5105802;28;20032;-61
2024/02/10 10:36:53;;;;;;;9.95;5.72;;;;;;;;;;5111336;28;20047;-60
2024/02/10 10:39:20;;;;;;;10.10;6.20;;;;;;;;;;5114477;28;20040;-60
2024/02/10 10:41:46;;;;;;;10.57;6.23;;;;;;;;;;5118659;28;20028;-60
2024/02/10 10:44:12;;;;;;;13.15;6.55;;;;;;;;;;5114276;28;20052;-61
2024/02/10 10:46:38;;;;;;;12.85;5.97;;;;;;;;;;5113884;28;20028;-60
2024/02/10 10:49:03;;;;;;;8.23;5.60;;;;;;;;;;5104028;28;20056;-60
2024/02/10 10:51:37;;;;;;;11.98;6.53;;;;;;;;;;5116470;28;20032;-61
2024/02/10 10:54:05;;;;;;;8.37;4.50;;;;;;;;;;5105412;28;20097;-60
2024/02/10 10:56:31;;;;;;;12.20;5.17;;;;;;;;;;5108783;28;20063;-60
2024/02/10 10:58:57;;;;;;;;;;;;;;;;;;5114342;28;20028;-61
2024/02/10 11:01:23;;;;;;;9.80;4.43;;;;;;;;;;5112830;28;19910;-60
2024/02/10 11:03:48;;;;;;;7.82;4.18;;;;;;;;;;5120663;28;20035;-61
2024/02/10 11:06:14;;;;;;;9.40;4.35;;;;;;;;;;5114710;28;20036;-60
2024/02/10 11:08:40;;;;;;;8.65;4.00;;;;;;;;;;5124073;28;20046;-60
2024/02/10 11:11:08;;;;;;;6.85;4.18;;;;;;;;;;5108020;28;20061;-60
2024/02/10 11:13:35;;;;;;;5.97;3.83;;;;;;;;;;5117470;28;20024;-59
2024/02/10 11:16:03;;;;;;;5.63;3.77;;;;;;;;;;5102787;28;20035;-60
2024/02/10 11:18:31;;;;;;;11.40;4.20;;;;;;;;;;5111032;28;20025;-60
2024/02/10 11:21:06;;;;;;;6.83;4.07;;;;;;;;;;5119616;28;20070;-61
2024/02/10 11:23:33;;;;;;;7.37;3.63;;;;;;;;;;5119698;28;20028;-60
2024/02/10 11:25:59;;;;;;;6.80;3.37;;;;;;;;;;5105754;28;20024;-59
2024/02/10 11:28:26;;;;;;;7.63;5.18;;;;;;;;;;5117803;28;20024;-59
2024/02/10 11:30:52;;;;;;;8.17;4.80;;;;;;;;;;5116571;28;20044;-60
2024/02/10 11:33:24;;;;;;;9.68;5.20;;;;;;;;;;5123940;28;20032;-59
2024/02/10 11:35:53;;;;;;;9.23;5.43;;;;;;;;;;5114295;28;20062;-60
2024/02/10 11:38:21;;;;;;;7.60;5.37;;;;;;;;;;5111493;28;20087;-60
2024/02/10 11:40:47;;;;;;;9.37;5.13;;;;;;;;;;5112317;28;20034;-60
2024/02/10 11:43:14;;;;;;;;;;;;;;;;;;5117494;28;20051;-60
2024/02/10 11:45:41;;;;;;;11.43;6.05;;;;;;;;;;5114050;28;19943;-59
2024/02/10 11:48:08;;;;;;;8.57;5.17;;;;;;;;;;5116921;28;20043;-60
2024/02/10 11:50:36;;;;;;;8.13;5.47;;;;;;;;;;5107645;28;20043;-60
2024/02/10 11:53:03;;;;;;;9.60;5.73;;;;;;;;;;5124747;28;20024;-61
2024/02/10 11:55:29;;;;;;;8.60;4.93;;;;;;;;;;5107285;28;20021;-61
2024/02/10 11:57:54;;;;;;;10.23;4.72;;;;;;;;;;5106293;28;20039;-59
2024/02/10 12:00:19;;;;;;;9.98;5.82;;;;;;;;;;5111395;28;20119;-59
2024/02/10 12:02:47;;;;;;;12.27;5.10;;;;;;;;;;5108823;28;20036;-61
2024/02/10 12:05:13;;;;;;;12.90;4.97;;;;;;;;;;5108036;28;20032;-61
2024/02/10 12:07:39;;;;;;;11.05;5.53;;;;;;;;;;5100583;28;20039;-60
2024/02/10 12:10:05;;;;;;;12.35;6.40;;;;;;;;;;5112136;28;20041;-61
2024/02/10 12:12:31;;;;;;;;;;;;;;;;;;5119504;28;20087;-60
2024/02/10 12:14:57;;;;;;;11.68;5.20;;;;;;;;;;5115234;28;19912;-61
2024/02/10 12:17:25;;;;;;;9.00;5.70;;;;;;;;;;5112452;28;20087;-60
2024/02/10 12:19:52;;;;;;;11.00;5.43;;;;;;;;;;5114442;28;20047;-60
2024/02/10 12:22:19;;;;;;;7.53;5.10;;;;;;;;;;5106471;28;20039;-60
2024/02/10 12:24:46;;;;;;;9.43;5.07;;;;;;;;;;5118543;28;20032;-61
2024/02/10 12:27:12;;;;;;;9.50;5.33;;;;;;;;;;5101087;28;20024;-61
2024/02/10 12:29:40;;;;;;;12.60;5.90;;;;;;;;;;5110074;28;20032;-61
2024/02/10 12:32:08;;;;;;;10.93;5.43;;;;;;;;;;5120349;28;20032;-60
2024/02/10 12:34:34;;;;;;;6.43;4.57;;;;;;;;;;5115238;28;20031;-60
2024/02/10 12:36:59;;;;;;;12.53;5.50;;;;;;;;;;5112737;28;20032;-60
2024/02/10 12:39:24;;;;;;;10.93;5.13;;;;;;;;;;5114471;28;20083;-60
2024/02/10 12:41:50;;;;;;;9.43;5.10;;;;;;;;;;5119484;28;20260;-59
2024/02/10 12:44:15;;;;;;;7.10;4.80;;;;;;;;;;5114134;28;20273;-59
2024/02/10 12:46:41;;;;;;;9.82;5.15;;;;;;;;;;5118431;28;20040;-59
2024/02/10 12:49:09;;;;;;;8.57;4.60;;;;;;;;;;5101141;28;20064;-62
2024/02/10 12:51:35;;;;;;;8.93;4.53;;;;;;;;;;5104651;28;20056;-59
2024/02/10 12:54:00;;;;;;;8.23;4.93;;;;;;;;;;5127380;28;20055;-59
2024/02/10 12:56:27;;;;;;;10.50;5.10;;;;;;;;;;5115944;28;20040;-59
2024/02/10 12:58:58;;;;;;;9.30;4.77;;;;;;;;;;5110314;28;20039;-60
2024/02/10 13:01:30;;;;;;;9.30;4.97;;;;;;;;;;5115493;28;20047;-60
2024/02/10 13:03:59;;;;;;;8.40;5.37;;;;;;;;;;5104449;28;20028;-60
2024/02/10 13:06:24;;;;;;;12.60;4.60;;;;;;;;;;5107465;28;20032;-59
2024/02/10 13:08:50;;;;;;;12.73;5.43;;;;;;;;;;5114932;28;20084;-60
2024/02/10 13:11:16;;;;;;;7.60;4.83;;;;;;;;;;5109211;28;20036;-60
2024/02/10 13:13:44;;;;;;;12.88;5.22;;;;;;;;;;5124177;28;20031;-57
2024/02/10 13:16:09;;;;;;;10.83;6.27;;;;;;;;;;5104801;28;20036;-59
2024/02/10 13:18:35;;;;;;;17.45;6.32;;;;;;;;;;5104736;28;20027;-60
2024/02/10 13:21:00;;;;;;;13.63;7.30;;;;;;;;;;5113532;28;20035;-60
2024/02/10 13:23:26;;;;;;;11.45;6.47;;;;;;;;;;5121167;28;20047;-60
2024/02/10 13:25:51;;;;;;;9.98;5.07;;;;;;;;;;5112341;28;20044;-60
2024/02/10 13:28:16;;;;;;;13.43;6.50;;;;;;;;;;5115382;28;20036;-59
2024/02/10 13:30:44;;;;;;;13.18;6.18;;;;;;;;;;5109466;28;20020;-60
2024/02/10 13:33:10;;;;;;;14.23;5.43;;;;;;;;;;5114449;28;20039;-60
2024/02/10 13:35:42;;;;;;;13.45;6.18;;;;;;;;;;5119305;28;20035;-60
2024/02/10 14:00:24;;;;;;;12.83;6.17;;;;;;;;;;5111788;28;20055;-60
2024/02/10 14:03:06;;;;;;;7.90;5.03;;;;;;;;;;5113846;28;20036;-60
2024/02/10 14:05:41;;;;;;;13.27;5.33;;;;;;;;;;5113212;28;20032;-61
2024/02/10 14:11:07;;;;;;;10.57;5.23;;;;;;;;;;5119162;28;20021;-60
2024/02/10 14:13:30;;;;;;;11.80;5.70;;;;;;;;;;5109828;28;20088;-60
2024/02/10 14:15:59;;;;;;;14.87;6.70;;;;;;;;;;5108235;28;20054;-60
2024/02/10 14:18:33;;;;;;;10.87;5.23;;;;;;;;;;5114729;28;20034;-60
2024/02/10 14:21:00;;;;;;;16.43;5.67;;;;;;;;;;5114360;28;20062;-60
2024/02/10 14:23:30;;;;;;;13.43;8.53;;;;;;;;;;5118911;28;20035;-60
2024/02/10 14:26:12;;;;;;;10.90;5.27;;;;;;;;;;5113419;28;20028;-60
2024/02/10 14:28:49;;;;;;;9.17;5.17;;;;;;;;;;5113480;28;20028;-61
2024/02/10 14:31:16;;;;;;;8.73;5.27;;;;;;;;;;5108488;28;20039;-60
2024/02/10 14:33:42;;;;;;;13.00;4.90;;;;;;;;;;5112627;28;20059;-61
2024/02/10 14:41:20;;;;;;;10.57;5.73;;;;;;;;;;5105656;28;20039;-59
2024/02/10 14:43:45;;;;;;;10.13;5.45;;;;;;;;;;5121078;28;20027;-60
2024/02/10 14:46:14;;;;;;;12.73;5.67;;;;;;;;;;5106570;28;20532;-60
2024/02/10 14:48:41;;;;;;;16.10;5.70;;;;;;;;;;5114065;28;20042;-61
2024/02/10 14:51:10;;;;;;;16.67;6.50;;;;;;;;;;5118010;28;20050;-60
2024/02/10 14:53:37;;;;;;;12.10;6.70;;;;;;;;;;5112799;28;20023;-61
2024/02/10 14:56:10;;;;;;;14.40;7.83;;;;;;;;;;5115213;28;20058;-60
2024/02/10 14:58:37;;;;;;;13.73;6.17;;;;;;;;;;5103552;28;20024;-61
2024/02/10 15:01:04;;;;;;;10.70;5.50;;;;;;;;;;5116929;28;20024;-59
2024/02/10 15:03:32;;;;;;;10.67;5.67;;;;;;;;;;5118972;28;20088;-60
2024/02/10 15:05:58;;;;;;;13.57;6.97;;;;;;;;;;5121782;28;20032;-61
2024/02/10 15:08:24;;;;;;;11.23;5.90;;;;;;;;;;5105600;28;20033;-61